FLE177 ZULS-VNKT
Flight info
| Callsign | FLE177 |
|---|---|
| Flight time | 1h 1m |
| Altitude | 32100 |
| Route | IKU01D IKUBI B345 NONIM/N0477F320 B345 KIMTI KMTI2R |
| Aircraft | B38M/M-SDE1FGHILORVWXY/HB1 |
Departure
| Time | 2026-05-07 14:38 |
|---|---|
| Airport | Lhasa Gonggar International Airport (ZULS) |
Arrival
| Time | 2026-05-07 15:40 |
|---|---|
| Airport | Tribhuvan International Airport (VNKT) |
| Time | Latitude | Longitude | Altitude | Speed | Heading |
|---|---|---|---|---|---|
| 2026-05-07 14:14 | 29.29370 | 90.89720 | 11555 ft | 0 kts | 180° |
| 2026-05-07 14:29 | 29.29377 | 90.89720 | 11540 ft | 4 kts | 180° |
| 2026-05-07 14:29 | 29.29404 | 90.89720 | 11545 ft | 4 kts | 180° |
| 2026-05-07 14:29 | 29.29431 | 90.89720 | 11548 ft | 4 kts | 180° |
| 2026-05-07 14:30 | 29.29458 | 90.89720 | 11551 ft | 4 kts | 180° |
| 2026-05-07 14:30 | 29.29465 | 90.89720 | 11541 ft | 1 kts | 180° |
| 2026-05-07 14:33 | 29.29462 | 90.89717 | 11554 ft | 1 kts | 222° |
| 2026-05-07 14:34 | 29.29462 | 90.89710 | 11552 ft | 1 kts | 277° |
| 2026-05-07 14:34 | 29.29478 | 90.89687 | 11550 ft | 7 kts | 311° |
| 2026-05-07 14:34 | 29.29517 | 90.89637 | 11549 ft | 9 kts | 311° |
| 2026-05-07 14:34 | 29.29574 | 90.89609 | 11551 ft | 9 kts | 7° |
| 2026-05-07 14:35 | 29.29616 | 90.89580 | 11556 ft | 7 kts | 273° |
| 2026-05-07 14:35 | 29.29614 | 90.89501 | 11560 ft | 14 kts | 269° |
| 2026-05-07 14:35 | 29.29614 | 90.89359 | 11560 ft | 21 kts | 270° |
| 2026-05-07 14:35 | 29.29625 | 90.89206 | 11555 ft | 13 kts | 321° |
| 2026-05-07 14:36 | 29.29720 | 90.89195 | 11545 ft | 16 kts | 1° |
| 2026-05-07 14:36 | 29.29778 | 90.89276 | 11542 ft | 3 kts | 89° |
| 2026-05-07 14:36 | 29.29780 | 90.89368 | 11555 ft | 38 kts | 89° |
| 2026-05-07 14:36 | 29.29789 | 90.89905 | 11556 ft | 96 kts | 88° |
| 2026-05-07 14:37 | 29.29804 | 90.90872 | 11556 ft | 146 kts | 89° |
| 2026-05-07 14:37 | 29.29827 | 90.93669 | 11537 ft | 175 kts | 94° |
| 2026-05-07 14:37 | 29.29791 | 90.95151 | 11672 ft | 195 kts | 94° |
| 2026-05-07 14:38 | 29.29761 | 90.96706 | 11864 ft | 193 kts | 93° |
| 2026-05-07 14:38 | 29.29735 | 90.98286 | 12105 ft | 204 kts | 93° |
| 2026-05-07 14:38 | 29.29712 | 91.00032 | 12244 ft | 235 kts | 93° |
| 2026-05-07 14:38 | 29.29672 | 91.01887 | 13113 ft | 232 kts | 93° |
| 2026-05-07 14:39 | 29.29642 | 91.03778 | 13522 ft | 245 kts | 92° |
| 2026-05-07 14:39 | 29.29640 | 91.05801 | 13890 ft | 259 kts | 91° |
| 2026-05-07 14:39 | 29.29653 | 91.07879 | 14543 ft | 266 kts | 91° |
| 2026-05-07 14:39 | 29.29694 | 91.10041 | 15080 ft | 276 kts | 90° |
| 2026-05-07 14:40 | 29.29750 | 91.12278 | 15594 ft | 287 kts | 90° |
| 2026-05-07 14:40 | 29.29827 | 91.14605 | 16220 ft | 294 kts | 89° |
| 2026-05-07 14:40 | 29.29833 | 91.16976 | 16831 ft | 301 kts | 97° |
| 2026-05-07 14:40 | 29.29439 | 91.19279 | 17813 ft | 289 kts | 110° |
| 2026-05-07 14:41 | 29.28553 | 91.21367 | 18268 ft | 297 kts | 130° |
| 2026-05-07 14:41 | 29.27068 | 91.22998 | 18524 ft | 307 kts | 152° |
| 2026-05-07 14:41 | 29.25091 | 91.23968 | 18941 ft | 309 kts | 172° |
| 2026-05-07 14:41 | 29.22946 | 91.24033 | 19451 ft | 313 kts | 192° |
| 2026-05-07 14:42 | 29.20999 | 91.23010 | 20152 ft | 301 kts | 224° |
| 2026-05-07 14:42 | 29.19809 | 91.21115 | 21336 ft | 302 kts | 249° |
| 2026-05-07 14:42 | 29.19236 | 91.18761 | 21647 ft | 312 kts | 259° |
| 2026-05-07 14:42 | 29.19092 | 91.16250 | 21170 ft | 323 kts | 274° |
| 2026-05-07 14:43 | 29.19809 | 91.13769 | 21535 ft | 339 kts | 299° |
| 2026-05-07 14:43 | 29.21340 | 91.11671 | 22085 ft | 347 kts | 306° |
| 2026-05-07 14:43 | 29.22874 | 91.09519 | 22587 ft | 350 kts | 304° |
| 2026-05-07 14:43 | 29.23886 | 91.08084 | 22981 ft | 351 kts | 305° |
| 2026-05-07 14:44 | 29.25944 | 91.05154 | 23750 ft | 350 kts | 305° |
| 2026-05-07 14:44 | 29.27445 | 91.03013 | 24527 ft | 341 kts | 304° |
| 2026-05-07 14:44 | 29.28411 | 91.01607 | 24950 ft | 339 kts | 301° |
| 2026-05-07 14:44 | 29.29616 | 90.98265 | 25020 ft | 347 kts | 274° |
| 2026-05-07 14:45 | 29.29768 | 90.95455 | 25055 ft | 361 kts | 271° |
| 2026-05-07 14:45 | 29.29871 | 90.93532 | 25074 ft | 371 kts | 271° |
| 2026-05-07 14:45 | 29.30064 | 90.89467 | 25139 ft | 391 kts | 270° |
| 2026-05-07 14:45 | 29.30198 | 90.86298 | 25169 ft | 405 kts | 270° |
| 2026-05-07 14:46 | 29.30329 | 90.83072 | 25335 ft | 414 kts | 270° |
| 2026-05-07 14:46 | 29.30416 | 90.80852 | 25678 ft | 414 kts | 270° |
| 2026-05-07 14:46 | 29.30545 | 90.77546 | 26088 ft | 417 kts | 270° |
| 2026-05-07 14:46 | 29.30714 | 90.73144 | 26711 ft | 418 kts | 270° |
| 2026-05-07 14:47 | 29.30842 | 90.69807 | 27133 ft | 420 kts | 270° |
| 2026-05-07 14:47 | 29.30927 | 90.67546 | 27393 ft | 422 kts | 270° |
| 2026-05-07 14:47 | 29.31096 | 90.63074 | 27921 ft | 425 kts | 271° |
| 2026-05-07 14:47 | 29.31222 | 90.59690 | 28358 ft | 427 kts | 270° |
| 2026-05-07 14:48 | 29.31308 | 90.57390 | 28637 ft | 428 kts | 270° |
| 2026-05-07 14:48 | 29.31432 | 90.54017 | 29031 ft | 431 kts | 270° |
| 2026-05-07 14:48 | 29.31559 | 90.50576 | 29416 ft | 433 kts | 270° |
| 2026-05-07 14:48 | 29.31686 | 90.47079 | 29790 ft | 434 kts | 270° |
| 2026-05-07 14:49 | 29.31811 | 90.43657 | 30094 ft | 437 kts | 270° |
| 2026-05-07 14:49 | 29.31935 | 90.40181 | 30463 ft | 437 kts | 270° |
| 2026-05-07 14:49 | 29.32059 | 90.36689 | 30833 ft | 438 kts | 270° |
| 2026-05-07 14:49 | 29.32182 | 90.33203 | 31255 ft | 437 kts | 270° |
| 2026-05-07 14:50 | 29.32304 | 90.29732 | 31767 ft | 435 kts | 269° |
| 2026-05-07 14:50 | 29.32425 | 90.26264 | 31957 ft | 435 kts | 270° |
| 2026-05-07 14:50 | 29.32664 | 90.19369 | 31954 ft | 433 kts | 269° |
| 2026-05-07 14:51 | 29.32897 | 90.12493 | 32065 ft | 432 kts | 269° |
| 2026-05-07 14:51 | 29.33126 | 90.05665 | 32010 ft | 430 kts | 269° |
| 2026-05-07 14:52 | 29.33351 | 89.98816 | 32052 ft | 431 kts | 270° |
| 2026-05-07 14:52 | 29.33575 | 89.91909 | 32024 ft | 434 kts | 269° |
| 2026-05-07 14:53 | 29.33796 | 89.84987 | 31993 ft | 435 kts | 269° |
| 2026-05-07 14:53 | 29.34012 | 89.78067 | 32022 ft | 435 kts | 269° |
| 2026-05-07 14:54 | 29.34226 | 89.71154 | 32028 ft | 435 kts | 269° |
| 2026-05-07 14:54 | 29.34436 | 89.64244 | 31997 ft | 433 kts | 269° |
| 2026-05-07 14:55 | 29.34642 | 89.57325 | 32012 ft | 435 kts | 269° |
| 2026-05-07 14:55 | 29.34845 | 89.50409 | 31991 ft | 434 kts | 269° |
| 2026-05-07 14:56 | 29.35044 | 89.43494 | 31987 ft | 434 kts | 269° |
| 2026-05-07 14:56 | 29.35240 | 89.36576 | 31971 ft | 434 kts | 269° |
| 2026-05-07 14:57 | 29.35113 | 89.29737 | 31952 ft | 430 kts | 255° |
| 2026-05-07 14:57 | 29.34067 | 89.26515 | 31986 ft | 428 kts | 240° |
| 2026-05-07 14:57 | 29.32344 | 89.23728 | 31979 ft | 429 kts | 231° |
| 2026-05-07 14:58 | 29.30411 | 89.21110 | 31838 ft | 432 kts | 230° |
| 2026-05-07 14:58 | 29.28444 | 89.18563 | 31869 ft | 433 kts | 230° |
| 2026-05-07 14:58 | 29.24375 | 89.13453 | 31854 ft | 434 kts | 229° |
| 2026-05-07 14:59 | 29.20293 | 89.08413 | 31833 ft | 430 kts | 229° |
| 2026-05-07 14:59 | 29.16226 | 89.03410 | 31866 ft | 430 kts | 229° |
| 2026-05-07 15:00 | 29.12154 | 88.98409 | 31877 ft | 429 kts | 229° |
| 2026-05-07 15:00 | 29.08084 | 88.93418 | 31869 ft | 429 kts | 229° |
| 2026-05-07 15:01 | 29.04007 | 88.88423 | 31856 ft | 431 kts | 229° |
| 2026-05-07 15:01 | 28.99927 | 88.83430 | 31919 ft | 431 kts | 229° |
| 2026-05-07 15:02 | 28.95830 | 88.78423 | 31905 ft | 431 kts | 228° |
| 2026-05-07 15:02 | 28.91741 | 88.73431 | 31913 ft | 430 kts | 228° |
| 2026-05-07 15:03 | 28.87655 | 88.68451 | 31965 ft | 430 kts | 228° |
| 2026-05-07 15:03 | 28.83575 | 88.63484 | 31946 ft | 429 kts | 228° |
| 2026-05-07 15:04 | 28.79488 | 88.58514 | 31974 ft | 429 kts | 228° |
| 2026-05-07 15:04 | 28.75398 | 88.53547 | 32039 ft | 430 kts | 228° |
| 2026-05-07 15:05 | 28.71339 | 88.48623 | 31969 ft | 428 kts | 228° |
| 2026-05-07 15:05 | 28.67239 | 88.43656 | 32000 ft | 431 kts | 228° |
| 2026-05-07 15:06 | 28.63129 | 88.38683 | 32003 ft | 429 kts | 229° |
| 2026-05-07 15:06 | 28.59042 | 88.33744 | 32047 ft | 428 kts | 229° |
| 2026-05-07 15:07 | 28.54172 | 88.27861 | 32008 ft | 428 kts | 229° |
| 2026-05-07 15:07 | 28.45989 | 88.18028 | 32017 ft | 428 kts | 229° |
| 2026-05-07 15:08 | 28.37833 | 88.08169 | 32049 ft | 429 kts | 228° |
| 2026-05-07 15:08 | 28.29607 | 87.98378 | 32058 ft | 432 kts | 229° |
| 2026-05-07 15:09 | 28.21352 | 87.88463 | 32112 ft | 432 kts | 229° |
| 2026-05-07 15:09 | 28.13049 | 87.78587 | 32179 ft | 433 kts | 228° |
| 2026-05-07 15:10 | 28.04769 | 87.68734 | 32240 ft | 432 kts | 228° |
| 2026-05-07 15:10 | 27.96482 | 87.58932 | 32222 ft | 430 kts | 229° |
| 2026-05-07 15:11 | 27.88270 | 87.49109 | 32286 ft | 429 kts | 228° |
| 2026-05-07 15:11 | 27.78651 | 87.41411 | 32237 ft | 440 kts | 196° |
| 2026-05-07 15:12 | 27.72770 | 87.39594 | 32217 ft | 432 kts | 213° |
| 2026-05-07 15:12 | 27.69981 | 87.37474 | 32253 ft | 431 kts | 218° |
| 2026-05-07 15:12 | 27.65066 | 87.33595 | 32240 ft | 430 kts | 218° |
| 2026-05-07 15:13 | 27.60319 | 87.29488 | 32278 ft | 429 kts | 230° |
| 2026-05-07 15:13 | 27.58704 | 87.26729 | 32073 ft | 420 kts | 248° |
| 2026-05-07 15:13 | 27.57753 | 87.23668 | 32268 ft | 421 kts | 253° |
| 2026-05-07 15:14 | 27.56885 | 87.17112 | 32260 ft | 424 kts | 262° |
| 2026-05-07 15:14 | 27.56270 | 87.10483 | 32233 ft | 427 kts | 263° |
| 2026-05-07 15:15 | 27.55731 | 87.03778 | 32248 ft | 427 kts | 263° |
| 2026-05-07 15:15 | 27.55222 | 86.97131 | 32211 ft | 425 kts | 263° |
| 2026-05-07 15:16 | 27.54719 | 86.90533 | 32238 ft | 427 kts | 264° |
| 2026-05-07 15:16 | 27.54203 | 86.83867 | 32237 ft | 427 kts | 263° |
| 2026-05-07 15:17 | 27.53687 | 86.77211 | 32245 ft | 426 kts | 264° |
| 2026-05-07 15:17 | 27.53169 | 86.70577 | 32257 ft | 424 kts | 263° |
| 2026-05-07 15:18 | 27.52646 | 86.63925 | 32283 ft | 428 kts | 263° |
| 2026-05-07 15:18 | 27.52118 | 86.57259 | 32216 ft | 426 kts | 264° |
| 2026-05-07 15:19 | 27.51587 | 86.50572 | 32190 ft | 430 kts | 264° |
| 2026-05-07 15:19 | 27.51321 | 86.47235 | 31492 ft | 428 kts | 264° |
| 2026-05-07 15:19 | 27.51057 | 86.43947 | 30952 ft | 424 kts | 264° |
| 2026-05-07 15:20 | 27.50794 | 86.40662 | 30488 ft | 419 kts | 264° |
| 2026-05-07 15:20 | 27.50529 | 86.37390 | 29695 ft | 424 kts | 264° |
| 2026-05-07 15:20 | 27.50254 | 86.34008 | 28541 ft | 431 kts | 265° |
| 2026-05-07 15:20 | 27.49979 | 86.30628 | 27560 ft | 437 kts | 265° |
| 2026-05-07 15:21 | 27.49787 | 86.27240 | 26857 ft | 440 kts | 271° |
| 2026-05-07 15:21 | 27.50241 | 86.23836 | 26041 ft | 440 kts | 280° |
| 2026-05-07 15:21 | 27.50806 | 86.20465 | 25415 ft | 436 kts | 280° |
| 2026-05-07 15:21 | 27.51375 | 86.17118 | 24684 ft | 436 kts | 280° |
| 2026-05-07 15:22 | 27.51956 | 86.13768 | 23965 ft | 435 kts | 281° |
| 2026-05-07 15:22 | 27.52539 | 86.10426 | 23207 ft | 434 kts | 281° |
| 2026-05-07 15:22 | 27.53123 | 86.07083 | 22421 ft | 432 kts | 281° |
| 2026-05-07 15:22 | 27.53700 | 86.03776 | 21769 ft | 428 kts | 281° |
| 2026-05-07 15:23 | 27.54273 | 86.00496 | 21127 ft | 425 kts | 281° |
| 2026-05-07 15:23 | 27.54838 | 85.97246 | 20471 ft | 422 kts | 281° |
| 2026-05-07 15:23 | 27.55403 | 85.93996 | 19805 ft | 421 kts | 281° |
| 2026-05-07 15:23 | 27.55963 | 85.90771 | 19148 ft | 420 kts | 281° |
| 2026-05-07 15:24 | 27.56522 | 85.87545 | 18475 ft | 419 kts | 281° |
| 2026-05-07 15:24 | 27.57075 | 85.84352 | 18124 ft | 409 kts | 280° |
| 2026-05-07 15:24 | 27.57614 | 85.81234 | 17793 ft | 399 kts | 280° |
| 2026-05-07 15:24 | 27.58132 | 85.78235 | 17569 ft | 389 kts | 280° |
| 2026-05-07 15:25 | 27.58647 | 85.75248 | 17361 ft | 378 kts | 280° |
| 2026-05-07 15:25 | 27.59135 | 85.72414 | 17154 ft | 368 kts | 280° |
| 2026-05-07 15:25 | 27.59611 | 85.69642 | 16979 ft | 350 kts | 281° |
| 2026-05-07 15:25 | 27.60062 | 85.67018 | 16825 ft | 335 kts | 280° |
| 2026-05-07 15:26 | 27.60499 | 85.64474 | 16654 ft | 326 kts | 280° |
| 2026-05-07 15:26 | 27.60952 | 85.62008 | 16413 ft | 320 kts | 285° |
| 2026-05-07 15:26 | 27.61630 | 85.59611 | 16054 ft | 319 kts | 287° |
| 2026-05-07 15:26 | 27.62298 | 85.57236 | 15727 ft | 316 kts | 287° |
| 2026-05-07 15:27 | 27.62951 | 85.54872 | 15396 ft | 314 kts | 286° |
| 2026-05-07 15:27 | 27.63592 | 85.52526 | 15076 ft | 312 kts | 285° |
| 2026-05-07 15:27 | 27.64224 | 85.50191 | 14782 ft | 310 kts | 286° |
| 2026-05-07 15:27 | 27.64861 | 85.47886 | 14584 ft | 304 kts | 288° |
| 2026-05-07 15:28 | 27.65710 | 85.45745 | 14380 ft | 294 kts | 297° |
| 2026-05-07 15:28 | 27.66771 | 85.43835 | 14187 ft | 281 kts | 306° |
| 2026-05-07 15:28 | 27.67999 | 85.42195 | 14013 ft | 267 kts | 313° |
| 2026-05-07 15:28 | 27.69346 | 85.40829 | 13885 ft | 254 kts | 319° |
| 2026-05-07 15:29 | 27.70667 | 85.39583 | 13801 ft | 241 kts | 320° |
| 2026-05-07 15:29 | 27.71898 | 85.38401 | 13681 ft | 229 kts | 317° |
| 2026-05-07 15:29 | 27.72942 | 85.37094 | 13483 ft | 221 kts | 305° |
| 2026-05-07 15:29 | 27.73677 | 85.35575 | 13182 ft | 217 kts | 289° |
| 2026-05-07 15:30 | 27.74000 | 85.33953 | 12925 ft | 213 kts | 272° |
| 2026-05-07 15:30 | 27.73923 | 85.32292 | 12694 ft | 212 kts | 256° |
| 2026-05-07 15:30 | 27.73514 | 85.30700 | 12356 ft | 211 kts | 244° |
| 2026-05-07 15:30 | 27.72774 | 85.29281 | 11964 ft | 210 kts | 229° |
| 2026-05-07 15:31 | 27.71750 | 85.28127 | 11567 ft | 207 kts | 215° |
| 2026-05-07 15:31 | 27.70529 | 85.27303 | 11209 ft | 202 kts | 201° |
| 2026-05-07 15:31 | 27.69216 | 85.26832 | 10912 ft | 196 kts | 189° |
| 2026-05-07 15:31 | 27.67857 | 85.26725 | 10636 ft | 197 kts | 175° |
| 2026-05-07 15:32 | 27.66505 | 85.26972 | 10395 ft | 197 kts | 162° |
| 2026-05-07 15:32 | 27.65244 | 85.27559 | 10198 ft | 195 kts | 149° |
| 2026-05-07 15:32 | 27.64145 | 85.28426 | 9961 ft | 193 kts | 139° |
| 2026-05-07 15:32 | 27.63210 | 85.29512 | 9697 ft | 192 kts | 128° |
| 2026-05-07 15:33 | 27.62475 | 85.30753 | 9440 ft | 191 kts | 118° |
| 2026-05-07 15:33 | 27.61938 | 85.32127 | 9207 ft | 192 kts | 109° |
| 2026-05-07 15:33 | 27.61620 | 85.33587 | 8949 ft | 193 kts | 100° |
| 2026-05-07 15:33 | 27.61533 | 85.35101 | 8618 ft | 194 kts | 90° |
| 2026-05-07 15:34 | 27.61686 | 85.36616 | 8302 ft | 194 kts | 79° |
| 2026-05-07 15:34 | 27.62063 | 85.38045 | 8153 ft | 193 kts | 70° |
| 2026-05-07 15:34 | 27.62664 | 85.39400 | 8111 ft | 194 kts | 59° |
| 2026-05-07 15:34 | 27.63474 | 85.40629 | 8080 ft | 196 kts | 50° |
| 2026-05-07 15:35 | 27.64419 | 85.41739 | 8079 ft | 197 kts | 47° |
| 2026-05-07 15:35 | 27.65367 | 85.42853 | 8004 ft | 197 kts | 47° |
| 2026-05-07 15:35 | 27.66307 | 85.43972 | 7901 ft | 197 kts | 49° |
| 2026-05-07 15:35 | 27.67245 | 85.45098 | 7765 ft | 193 kts | 49° |
| 2026-05-07 15:36 | 27.68152 | 85.46095 | 7610 ft | 174 kts | 40° |
| 2026-05-07 15:36 | 27.69147 | 85.46826 | 7416 ft | 169 kts | 27° |
| 2026-05-07 15:36 | 27.70259 | 85.47244 | 7197 ft | 170 kts | 11° |
| 2026-05-07 15:36 | 27.71424 | 85.47284 | 6990 ft | 166 kts | 353° |
| 2026-05-07 15:37 | 27.72525 | 85.46926 | 6830 ft | 164 kts | 336° |
| 2026-05-07 15:37 | 27.73501 | 85.46262 | 6624 ft | 165 kts | 319° |
| 2026-05-07 15:37 | 27.74274 | 85.45331 | 6435 ft | 161 kts | 303° |
| 2026-05-07 15:37 | 27.74788 | 85.44218 | 6231 ft | 159 kts | 287° |
| 2026-05-07 15:38 | 27.75027 | 85.43004 | 6032 ft | 159 kts | 272° |
| 2026-05-07 15:38 | 27.75027 | 85.42179 | 5947 ft | 160 kts | 264° |
| 2026-05-07 15:38 | 27.74801 | 85.40949 | 5774 ft | 160 kts | 250° |
| 2026-05-07 15:38 | 27.74140 | 85.39496 | 5595 ft | 153 kts | 233° |
| 2026-05-07 15:39 | 27.73499 | 85.38533 | 5367 ft | 154 kts | 230° |
| 2026-05-07 15:39 | 27.72786 | 85.37608 | 5099 ft | 158 kts | 222° |
| 2026-05-07 15:39 | 27.71906 | 85.36934 | 4760 ft | 154 kts | 204° |
| 2026-05-07 15:39 | 27.70940 | 85.36507 | 4544 ft | 146 kts | 202° |
| 2026-05-07 15:40 | 27.70148 | 85.36139 | 4493 ft | 71 kts | 202° |
| 2026-05-07 15:40 | 27.69900 | 85.36026 | 4494 ft | 32 kts | 202° |
| 2026-05-07 15:40 | 27.69726 | 85.35946 | 4495 ft | 34 kts | 202° |
| 2026-05-07 15:40 | 27.69653 | 85.35913 | 4442 ft | 35 kts | 202° |
| 2026-05-07 15:41 | 27.69466 | 85.35816 | 4442 ft | 9 kts | 248° |
| 2026-05-07 15:41 | 27.69489 | 85.35750 | 4443 ft | 10 kts | 320° |
| 2026-05-07 15:41 | 27.69551 | 85.35746 | 4445 ft | 9 kts | 20° |
| 2026-05-07 15:41 | 27.69613 | 85.35772 | 4445 ft | 10 kts | 21° |
| 2026-05-07 15:42 | 27.69663 | 85.35794 | 4445 ft | 12 kts | 22° |
| 2026-05-07 15:42 | 27.69667 | 85.35796 | 4462 ft | 12 kts | 22° |
| 2026-05-07 15:42 | 27.69719 | 85.35820 | 4497 ft | 14 kts | 24° |
| 2026-05-07 15:42 | 27.69769 | 85.35845 | 4497 ft | 3 kts | 20° |
| 2026-05-07 15:43 | 27.69786 | 85.35840 | 4497 ft | 2 kts | 316° |
| 2026-05-07 15:43 | 27.69791 | 85.35828 | 4497 ft | 2 kts | 293° |
| 2026-05-07 15:43 | 27.69802 | 85.35800 | 4494 ft | 6 kts | 293° |
| 2026-05-07 15:43 | 27.69813 | 85.35768 | 4494 ft | 0 kts | 291° |
| 2026-05-07 15:44 | 27.69815 | 85.35764 | 4494 ft | 0 kts | 291° |